createdAt,value
2018-10-17T00:00:00.102Z,70.12
2018-10-17T00:00:13.175Z,70.23
2018-10-17T00:00:24.956Z,70.11
2018-10-17T00:00:36.745Z,70.03
2018-10-17T00:00:48.497Z,70.11
2018-10-17T00:01:00.316Z,69.79
2018-10-17T00:01:12.133Z,69.78
2018-10-17T00:01:23.872Z,69.96
2018-10-17T00:01:35.643Z,70.12
2018-10-17T00:01:47.417Z,70.17
2018-10-17T00:01:59.187Z,70.08
2018-10-17T00:02:10.964Z,69.32
2018-10-17T00:02:22.723Z,70.10
2018-10-17T00:02:34.524Z,69.41
2018-10-17T00:02:46.286Z,70.17
2018-10-17T00:02:58.090Z,70.24
2018-10-17T00:03:09.866Z,69.76
2018-10-17T00:03:21.629Z,69.79
2018-10-17T00:03:33.414Z,69.91
2018-10-17T00:03:45.179Z,69.68
2018-10-17T00:03:56.985Z,69.50
2018-10-17T00:04:08.763Z,70.10
2018-10-17T00:04:20.659Z,70.28
2018-10-17T00:04:32.407Z,69.85
2018-10-17T00:04:44.159Z,69.68
2018-10-17T00:04:55.990Z,69.71
2018-10-17T00:05:08.168Z,69.76
2018-10-17T00:05:19.855Z,70.37
2018-10-17T00:05:31.606Z,70.36
2018-10-17T00:05:43.376Z,70.33
2018-10-17T00:05:55.137Z,69.37
2018-10-17T00:06:06.902Z,69.86
2018-10-17T00:06:18.685Z,69.13
2018-10-17T00:06:30.434Z,69.47
2018-10-17T00:06:42.199Z,69.42
2018-10-17T00:06:54.008Z,69.35
2018-10-17T00:07:05.740Z,69.56
2018-10-17T00:07:17.564Z,69.81
2018-10-17T00:07:29.380Z,69.83
2018-10-17T00:07:41.158Z,70.08
2018-10-17T00:07:52.930Z,69.76
2018-10-17T00:08:04.682Z,70.33
2018-10-17T00:08:16.446Z,70.01
2018-10-17T00:08:28.195Z,70.00
2018-10-17T00:08:39.951Z,69.48
2018-10-17T00:08:51.711Z,70.10
2018-10-17T00:09:03.695Z,69.24
2018-10-17T00:09:15.443Z,70.01
2018-10-17T00:09:27.205Z,69.46
2018-10-17T00:09:38.996Z,69.86
2018-10-17T00:09:50.763Z,69.84
2018-10-17T00:10:02.570Z,69.72
2018-10-17T00:10:14.344Z,69.96
2018-10-17T00:10:26.109Z,69.40
2018-10-17T00:10:37.865Z,69.32
2018-10-17T00:10:49.642Z,69.13
2018-10-17T00:11:01.458Z,70.06
2018-10-17T00:11:13.177Z,69.34
2018-10-17T00:11:24.947Z,69.73
2018-10-17T00:11:36.705Z,69.93
2018-10-17T00:11:48.462Z,69.90
2018-10-17T00:12:00.209Z,69.06
2018-10-17T00:12:11.962Z,69.28
2018-10-17T00:12:23.743Z,69.24
2018-10-17T00:12:35.506Z,69.70
2018-10-17T00:12:47.841Z,70.17
2018-10-17T00:12:59.634Z,69.11
2018-10-17T00:13:11.383Z,69.44
2018-10-17T00:13:23.136Z,69.43
2018-10-17T00:13:34.922Z,70.28
2018-10-17T00:13:46.663Z,70.05
2018-10-17T00:13:58.419Z,69.82
2018-10-17T00:14:10.172Z,69.51
2018-10-17T00:14:21.921Z,69.81
2018-10-17T00:14:33.722Z,69.54
2018-10-17T00:14:45.482Z,69.69
2018-10-17T00:14:57.219Z,69.30
2018-10-17T00:15:09.479Z,69.34
2018-10-17T00:15:21.250Z,69.50
2018-10-17T00:15:32.998Z,70.11
2018-10-17T00:15:44.748Z,69.92
2018-10-17T00:15:56.540Z,69.65
2018-10-17T00:16:08.291Z,69.71
2018-10-17T00:16:20.079Z,69.78
2018-10-17T00:16:31.840Z,69.86
2018-10-17T00:16:44.381Z,69.38
2018-10-17T00:16:56.182Z,70.08
2018-10-17T00:17:08.621Z,69.37
2018-10-17T00:17:20.311Z,69.65
2018-10-17T00:17:32.069Z,70.02
2018-10-17T00:17:44.863Z,69.47
2018-10-17T00:17:56.708Z,69.26
2018-10-17T00:18:08.492Z,69.64
2018-10-17T00:18:20.282Z,69.44
2018-10-17T00:18:32.824Z,69.75
2018-10-17T00:18:44.589Z,69.81
2018-10-17T00:18:56.393Z,69.34
2018-10-17T00:19:08.207Z,69.23
2018-10-17T00:19:19.897Z,69.21
2018-10-17T00:19:31.684Z,69.64
2018-10-17T00:19:43.439Z,69.80
2018-10-17T00:19:55.220Z,69.71
2018-10-17T00:20:07.009Z,69.99
2018-10-17T00:20:18.786Z,69.87
2018-10-17T00:20:30.567Z,69.72
2018-10-17T00:20:42.348Z,69.47
2018-10-17T00:20:54.116Z,69.68
2018-10-17T00:21:05.912Z,70.23
2018-10-17T00:21:17.658Z,69.62
2018-10-17T00:21:29.414Z,70.12
2018-10-17T00:21:41.173Z,69.15
2018-10-17T00:21:52.931Z,69.59
2018-10-17T00:22:04.669Z,69.22
2018-10-17T00:22:17.077Z,69.46
2018-10-17T00:22:28.836Z,69.84
2018-10-17T00:22:40.590Z,69.48
2018-10-17T00:22:52.767Z,69.17
2018-10-17T00:23:04.542Z,69.97
2018-10-17T00:23:16.381Z,69.18
2018-10-17T00:23:28.127Z,69.42
2018-10-17T00:23:39.875Z,69.39
2018-10-17T00:23:51.663Z,69.23
2018-10-17T00:24:03.423Z,69.88
2018-10-17T00:24:15.200Z,69.44
2018-10-17T00:24:26.995Z,69.31
2018-10-17T00:24:38.731Z,69.48
2018-10-17T00:24:50.516Z,69.67
2018-10-17T00:25:02.342Z,69.51
2018-10-17T00:25:14.129Z,69.88
2018-10-17T00:25:25.852Z,69.28
2018-10-17T00:25:37.616Z,69.58
2018-10-17T00:25:49.382Z,69.63
2018-10-17T00:26:01.153Z,69.79
2018-10-17T00:26:12.918Z,69.01
2018-10-17T00:26:25.485Z,69.39
2018-10-17T00:26:37.249Z,69.93
2018-10-17T00:26:49.181Z,69.53
2018-10-17T00:27:01.986Z,69.36
2018-10-17T00:27:13.731Z,69.41
2018-10-17T00:27:25.695Z,69.58
2018-10-17T00:27:37.548Z,69.46
2018-10-17T00:27:49.339Z,69.70
2018-10-17T00:28:01.098Z,69.35
2018-10-17T00:28:12.845Z,69.85
2018-10-17T00:28:24.602Z,69.08
2018-10-17T00:28:36.354Z,69.06
2018-10-17T00:28:48.119Z,69.67
2018-10-17T00:29:00.524Z,69.86
2018-10-17T00:29:12.323Z,69.94
2018-10-17T00:29:24.009Z,69.45
2018-10-17T00:29:35.760Z,70.03
2018-10-17T00:29:47.537Z,69.27
2018-10-17T00:29:59.338Z,69.87
2018-10-17T00:30:11.811Z,69.48
2018-10-17T00:30:24.451Z,69.58
2018-10-17T00:30:36.278Z,69.95
2018-10-17T00:30:48.049Z,69.58
2018-10-17T00:30:59.810Z,69.11
2018-10-17T00:31:11.615Z,69.65
2018-10-17T00:31:23.367Z,68.96
2018-10-17T00:31:35.143Z,69.51
2018-10-17T00:31:46.903Z,69.82
2018-10-17T00:31:58.672Z,69.89
2018-10-17T00:32:10.451Z,69.89
2018-10-17T00:32:22.227Z,69.53
2018-10-17T00:32:33.975Z,69.33
2018-10-17T00:32:45.726Z,69.73
2018-10-17T00:32:57.529Z,69.89
2018-10-17T00:33:09.303Z,70.09
2018-10-17T00:33:21.095Z,69.47
2018-10-17T00:33:32.889Z,69.36
2018-10-17T00:33:44.650Z,69.49
2018-10-17T00:33:56.444Z,69.27
2018-10-17T00:35:23.439Z,69.32
2018-10-17T00:35:35.191Z,69.36
2018-10-17T00:35:46.979Z,69.33
2018-10-17T00:35:58.714Z,69.28
2018-10-17T00:36:10.459Z,69.65
2018-10-17T00:36:22.221Z,69.72
2018-10-17T00:36:33.995Z,70.05
2018-10-17T00:36:45.771Z,69.77
2018-10-17T00:36:58.367Z,69.88
2018-10-17T00:37:10.276Z,69.82
2018-10-17T00:37:21.912Z,69.88
2018-10-17T00:37:34.686Z,69.51
2018-10-17T00:37:46.445Z,69.92
2018-10-17T00:37:59.067Z,69.61
2018-10-17T00:38:10.939Z,69.93
2018-10-17T00:38:22.721Z,69.74
2018-10-17T00:38:34.473Z,69.95
2018-10-17T00:38:46.311Z,69.41
2018-10-17T00:38:58.071Z,69.40
2018-10-17T00:39:11.085Z,70.04
2018-10-17T00:39:22.860Z,69.92
2018-10-17T00:39:34.606Z,70.05
2018-10-17T00:39:46.599Z,69.20
2018-10-17T00:39:58.342Z,69.48
2018-10-17T00:40:10.096Z,69.29
2018-10-17T00:40:24.774Z,69.39
2018-10-17T00:40:36.607Z,69.17
2018-10-17T00:40:48.346Z,69.55
2018-10-17T00:41:00.125Z,69.60
2018-10-17T00:41:12.602Z,69.51
2018-10-17T00:41:24.312Z,69.12
2018-10-17T00:41:36.174Z,69.85
2018-10-17T00:41:47.955Z,69.28
2018-10-17T00:41:59.739Z,69.21
2018-10-17T00:42:11.499Z,69.45
2018-10-17T00:42:23.263Z,70.15
2018-10-17T00:42:35.254Z,69.56
2018-10-17T00:42:47.003Z,69.63
2018-10-17T00:42:58.784Z,69.19
2018-10-17T00:43:10.619Z,69.65
2018-10-17T00:43:22.296Z,69.99
2018-10-17T00:43:34.039Z,69.48
2018-10-17T00:43:46.799Z,68.97
2018-10-17T00:43:58.557Z,69.35
2018-10-17T00:44:10.327Z,69.58
2018-10-17T00:44:22.109Z,69.72
2018-10-17T00:44:33.865Z,69.91
2018-10-17T00:44:45.615Z,70.02
2018-10-17T00:44:57.455Z,69.41
2018-10-17T00:45:09.270Z,69.49
2018-10-17T00:45:21.099Z,70.05
2018-10-17T00:45:32.851Z,69.10
2018-10-17T00:45:44.634Z,69.10
2018-10-17T00:45:56.416Z,69.37
2018-10-17T00:46:08.158Z,70.19
2018-10-17T00:46:19.917Z,69.98
2018-10-17T00:46:31.654Z,69.14
2018-10-17T00:46:43.474Z,69.19
2018-10-17T00:46:55.304Z,69.45
2018-10-17T00:47:07.123Z,69.29
2018-10-17T00:47:18.824Z,69.21
2018-10-17T00:47:30.579Z,69.55
2018-10-17T00:47:42.363Z,69.59
2018-10-17T00:47:54.123Z,69.33
2018-10-17T00:48:05.874Z,69.59
2018-10-17T00:48:17.738Z,69.01
2018-10-17T00:48:29.514Z,69.23
2018-10-17T00:48:41.522Z,69.60
2018-10-17T00:48:53.301Z,69.41
2018-10-17T00:49:05.236Z,69.55
2018-10-17T00:49:17.053Z,69.56
2018-10-17T00:49:28.749Z,69.14
2018-10-17T00:49:40.498Z,70.04
2018-10-17T00:49:52.298Z,69.23
2018-10-17T00:50:04.068Z,69.77
2018-10-17T00:50:15.850Z,69.10
2018-10-17T00:50:27.609Z,69.15
2018-10-17T00:50:39.375Z,68.96
2018-10-17T00:50:51.146Z,69.01
2018-10-17T00:51:02.912Z,69.71
2018-10-17T00:51:14.689Z,69.00
2018-10-17T00:51:26.499Z,68.89
2018-10-17T00:51:38.285Z,69.18
2018-10-17T00:51:50.050Z,69.10
2018-10-17T00:52:01.812Z,69.71
2018-10-17T00:52:13.563Z,69.15
2018-10-17T00:52:25.313Z,69.35
2018-10-17T00:52:37.162Z,69.48
2018-10-17T00:52:48.923Z,69.62
2018-10-17T00:53:01.525Z,69.72
2018-10-17T00:53:13.389Z,69.60
2018-10-17T00:53:25.096Z,69.67
2018-10-17T00:53:36.855Z,68.96
2018-10-17T00:53:48.605Z,69.32
2018-10-17T00:54:00.367Z,69.81
2018-10-17T00:54:12.115Z,69.08
2018-10-17T00:54:24.778Z,68.97
2018-10-17T00:54:36.548Z,69.04
2018-10-17T00:54:48.368Z,68.99
2018-10-17T00:55:00.130Z,69.05
2018-10-17T00:55:11.976Z,69.07
2018-10-17T00:55:23.745Z,69.47
2018-10-17T00:55:35.517Z,69.32
2018-10-17T00:55:47.264Z,69.55
2018-10-17T00:55:59.017Z,69.62
2018-10-17T00:56:10.797Z,69.74
2018-10-17T00:56:22.568Z,69.75
2018-10-17T00:56:35.056Z,69.78
2018-10-17T00:56:46.819Z,69.86
2018-10-17T00:56:58.578Z,69.49
2018-10-17T00:57:10.335Z,69.89
2018-10-17T00:57:22.086Z,69.94
2018-10-17T00:57:33.844Z,69.73
2018-10-17T00:57:45.628Z,69.18
2018-10-17T00:57:57.387Z,69.53
2018-10-17T00:58:09.160Z,69.28
2018-10-17T00:58:20.921Z,69.43
2018-10-17T00:58:32.682Z,69.31
2018-10-17T00:58:44.457Z,68.85
2018-10-17T00:58:56.298Z,69.12
2018-10-17T00:59:11.326Z,69.02
2018-10-17T00:59:23.055Z,68.99
2018-10-17T00:59:34.795Z,69.43
2018-10-17T00:59:46.536Z,69.21
2018-10-17T00:59:58.308Z,69.13
2018-10-17T01:00:10.076Z,69.38
2018-10-17T01:00:21.846Z,69.55
2018-10-17T01:00:33.611Z,69.66
2018-10-17T01:00:45.442Z,69.32
2018-10-17T01:00:57.254Z,68.99
2018-10-17T01:01:09.084Z,69.01
2018-10-17T01:01:20.841Z,69.31
2018-10-17T01:01:32.604Z,69.39
2018-10-17T01:01:44.855Z,69.24
2018-10-17T01:01:56.609Z,69.26
2018-10-17T01:02:08.389Z,68.51
2018-10-17T01:02:20.120Z,68.92
2018-10-17T01:02:31.912Z,69.67
2018-10-17T01:02:43.693Z,69.51
2018-10-17T01:02:55.456Z,69.18
2018-10-17T01:03:07.227Z,69.24
2018-10-17T01:03:19.000Z,68.94
2018-10-17T01:03:30.772Z,68.77
2018-10-17T01:03:42.523Z,69.54
2018-10-17T01:03:54.335Z,69.61
2018-10-17T01:04:06.108Z,69.81
2018-10-17T01:04:17.877Z,69.46
2018-10-17T01:04:29.652Z,69.39
2018-10-17T01:04:41.408Z,68.96
2018-10-17T01:04:53.227Z,69.17
2018-10-17T01:05:04.990Z,69.59
2018-10-17T01:05:16.864Z,69.51
2018-10-17T01:05:28.567Z,68.71
2018-10-17T01:05:40.318Z,69.09
2018-10-17T01:05:52.085Z,69.90
2018-10-17T01:06:03.850Z,68.74
2018-10-17T01:06:15.619Z,68.88
2018-10-17T01:06:27.387Z,68.80
2018-10-17T01:06:39.659Z,68.93
2018-10-17T01:06:51.423Z,68.64
2018-10-17T01:07:03.220Z,68.75
2018-10-17T01:07:15.039Z,69.32
2018-10-17T01:07:26.759Z,69.42
2018-10-17T01:07:38.582Z,68.91
2018-10-17T01:07:50.336Z,69.20
2018-10-17T01:08:02.081Z,68.89
2018-10-17T01:08:13.842Z,69.11
2018-10-17T01:08:25.636Z,69.40
2018-10-17T01:08:37.384Z,69.32
2018-10-17T01:08:49.441Z,69.68
2018-10-17T01:09:02.164Z,68.98
2018-10-17T01:09:14.688Z,69.37
2018-10-17T01:09:27.326Z,69.06
2018-10-17T01:09:39.064Z,68.77
2018-10-17T01:09:50.804Z,69.25
2018-10-17T01:10:03.250Z,68.95
2018-10-17T01:10:14.989Z,69.25
2018-10-17T01:10:26.747Z,69.57
2018-10-17T01:10:38.506Z,69.29
2018-10-17T01:10:51.479Z,69.04
2018-10-17T01:11:03.308Z,69.65
2018-10-17T01:11:15.102Z,69.29
2018-10-17T01:11:26.821Z,69.08
2018-10-17T01:11:39.166Z,69.83
2018-10-17T01:11:50.913Z,69.80
2018-10-17T01:12:02.665Z,69.12
2018-10-17T01:12:14.407Z,69.61
2018-10-17T01:12:26.146Z,69.37
2018-10-17T01:12:39.400Z,69.36
2018-10-17T01:12:51.212Z,68.65
2018-10-17T01:13:02.984Z,69.57
2018-10-17T01:13:14.732Z,69.24
2018-10-17T01:13:26.465Z,69.06
2018-10-17T01:13:38.208Z,69.38
2018-10-17T01:13:49.958Z,69.67
2018-10-17T01:14:01.701Z,68.92
2018-10-17T01:14:13.458Z,69.25
2018-10-17T01:14:25.220Z,69.21
2018-10-17T01:14:36.987Z,69.64
2018-10-17T01:14:48.739Z,69.23
2018-10-17T01:15:00.486Z,69.36
2018-10-17T01:15:12.234Z,69.33
2018-10-17T01:15:23.983Z,69.04
2018-10-17T01:15:35.737Z,69.13
2018-10-17T01:15:48.513Z,68.57
2018-10-17T01:16:00.264Z,69.42
2018-10-17T01:16:12.009Z,69.11
2018-10-17T01:16:23.750Z,68.88
2018-10-17T01:16:36.226Z,69.65
2018-10-17T01:16:47.987Z,68.48
2018-10-17T01:16:59.785Z,69.47
2018-10-17T01:17:11.560Z,69.14
2018-10-17T01:17:23.448Z,68.98
2018-10-17T01:17:35.238Z,69.01
2018-10-17T01:17:47.001Z,69.65
2018-10-17T01:17:59.493Z,69.09
2018-10-17T01:18:11.250Z,69.22
2018-10-17T01:18:22.994Z,69.16
2018-10-17T01:18:34.750Z,69.05
2018-10-17T01:18:46.508Z,69.69
2018-10-17T01:18:58.289Z,69.26
2018-10-17T01:19:10.119Z,68.91
2018-10-17T01:19:21.842Z,69.07
2018-10-17T01:19:33.591Z,69.08
2018-10-17T01:19:45.355Z,68.72
2018-10-17T01:19:57.105Z,69.30
2018-10-17T01:20:10.973Z,68.71
2018-10-17T01:20:22.723Z,68.63
2018-10-17T01:20:34.482Z,69.02
2018-10-17T01:20:46.231Z,69.00
2018-10-17T01:20:57.966Z,69.56
2018-10-17T01:21:09.701Z,69.05
2018-10-17T01:21:21.447Z,69.32
2018-10-17T01:21:33.586Z,68.76
2018-10-17T01:21:45.360Z,68.94
2018-10-17T01:21:57.146Z,69.40
2018-10-17T01:22:08.886Z,69.04
2018-10-17T01:22:20.647Z,68.88
2018-10-17T01:22:32.403Z,69.19
2018-10-17T01:22:45.399Z,68.78
2018-10-17T01:22:57.160Z,69.13
2018-10-17T01:23:09.837Z,69.43
2018-10-17T01:23:21.610Z,68.93
2018-10-17T01:23:33.895Z,69.27
2018-10-17T01:23:45.647Z,69.10
2018-10-17T01:23:57.419Z,68.73
2018-10-17T01:24:09.171Z,69.12
2018-10-17T01:24:20.924Z,69.41
2018-10-17T01:24:32.685Z,68.69
2018-10-17T01:24:44.435Z,69.28
2018-10-17T01:24:56.216Z,69.04
2018-10-17T01:25:08.000Z,69.39
2018-10-17T01:25:19.742Z,69.49
2018-10-17T01:25:31.519Z,68.95
2018-10-17T01:25:43.263Z,68.75
2018-10-17T01:25:55.011Z,69.01
2018-10-17T01:26:06.767Z,69.20
2018-10-17T01:26:18.527Z,69.03
2018-10-17T01:26:30.284Z,69.33
2018-10-17T01:26:42.020Z,68.78
2018-10-17T01:26:53.788Z,68.80
2018-10-17T01:27:05.569Z,69.22
2018-10-17T01:27:17.319Z,68.65
2018-10-17T01:27:29.058Z,68.84
2018-10-17T01:27:40.789Z,68.54
2018-10-17T01:27:52.521Z,68.92
2018-10-17T01:28:04.276Z,69.57
2018-10-17T01:28:16.057Z,69.56
2018-10-17T01:28:27.822Z,68.83
2018-10-17T01:28:39.578Z,69.29
2018-10-17T01:28:51.735Z,68.95
2018-10-17T01:29:04.285Z,68.71
2018-10-17T01:29:16.161Z,69.01
2018-10-17T01:29:28.320Z,68.38
2018-10-17T01:29:40.067Z,69.08
2018-10-17T01:29:51.830Z,68.47
2018-10-17T01:30:03.578Z,69.23
2018-10-17T01:30:15.343Z,69.09
2018-10-17T01:30:27.105Z,69.06
2018-10-17T01:30:38.868Z,68.63
2018-10-17T01:30:50.619Z,69.41
2018-10-17T01:31:02.444Z,69.02
2018-10-17T01:31:15.040Z,69.27
2018-10-17T01:31:26.721Z,69.44
2018-10-17T01:31:38.470Z,69.42
2018-10-17T01:31:50.236Z,68.63
2018-10-17T01:32:02.019Z,68.69
2018-10-17T01:32:13.784Z,68.93
2018-10-17T01:32:25.539Z,69.36
2018-10-17T01:32:37.287Z,69.35
2018-10-17T01:32:49.973Z,69.57
2018-10-17T01:33:01.733Z,69.08
2018-10-17T01:33:14.157Z,69.03
2018-10-17T01:33:25.915Z,68.75
2018-10-17T01:33:37.654Z,68.90
2018-10-17T01:33:49.438Z,68.84
2018-10-17T01:34:01.983Z,69.17
2018-10-17T01:34:13.747Z,69.08
2018-10-17T01:34:25.494Z,69.75
2018-10-17T01:34:37.266Z,69.53
2018-10-17T01:34:49.021Z,69.03
2018-10-17T01:35:00.824Z,68.92
2018-10-17T01:35:12.567Z,68.72
2018-10-17T01:35:24.293Z,69.10
2018-10-17T01:35:36.042Z,69.22
2018-10-17T01:35:47.778Z,69.32
2018-10-17T01:35:59.532Z,69.18
2018-10-17T01:36:11.283Z,68.52
2018-10-17T01:36:23.059Z,68.70
2018-10-17T01:36:34.821Z,69.17
2018-10-17T01:36:47.302Z,68.70
2018-10-17T01:36:59.068Z,69.16
2018-10-17T01:37:10.927Z,68.46
2018-10-17T01:37:22.598Z,68.50
2018-10-17T01:37:34.350Z,69.09
2018-10-17T01:37:46.098Z,68.77
2018-10-17T01:37:57.856Z,69.43
2018-10-17T01:38:09.612Z,68.65
2018-10-17T01:38:21.371Z,69.46
2018-10-17T01:38:33.121Z,69.05
2018-10-17T01:38:44.866Z,68.49
2018-10-17T01:38:56.601Z,68.33
2018-10-17T01:39:08.729Z,69.17
2018-10-17T01:39:20.484Z,68.36
2018-10-17T01:39:32.248Z,68.48
2018-10-17T01:39:44.011Z,68.33
2018-10-17T01:39:55.761Z,69.05
2018-10-17T01:40:07.914Z,68.92
2018-10-17T01:40:19.669Z,69.15
2018-10-17T01:40:31.412Z,69.07
2018-10-17T01:40:43.168Z,68.28
2018-10-17T01:40:54.921Z,68.90
2018-10-17T01:41:06.698Z,68.95
2018-10-17T01:41:18.631Z,69.36
2018-10-17T01:41:30.251Z,68.64
2018-10-17T01:41:42.043Z,68.83
2018-10-17T01:41:53.807Z,69.30
2018-10-17T01:42:05.672Z,68.77
2018-10-17T01:42:17.395Z,69.09
2018-10-17T01:42:29.154Z,68.30
2018-10-17T01:42:41.853Z,69.16
2018-10-17T01:42:53.646Z,68.74
2018-10-17T01:43:05.404Z,68.81
2018-10-17T01:43:17.207Z,68.68
2018-10-17T01:43:29.126Z,68.54
2018-10-17T01:43:40.984Z,68.85
2018-10-17T01:43:53.593Z,68.62
2018-10-17T01:44:05.330Z,68.92
2018-10-17T01:44:17.085Z,68.91
2018-10-17T01:44:28.843Z,68.61
2018-10-17T01:44:40.605Z,68.75
2018-10-17T01:44:52.367Z,68.32
2018-10-17T01:45:04.187Z,69.12
2018-10-17T01:45:15.952Z,68.35
2018-10-17T01:45:27.685Z,68.76
2018-10-17T01:45:39.447Z,68.90
2018-10-17T01:45:51.202Z,68.76
2018-10-17T01:46:02.952Z,68.30
2018-10-17T01:46:14.712Z,68.55
2018-10-17T01:46:26.451Z,68.54
2018-10-17T01:46:38.218Z,69.02
2018-10-17T01:46:49.975Z,68.71
2018-10-17T01:47:01.740Z,68.51
2018-10-17T01:47:13.559Z,68.26
2018-10-17T01:47:25.322Z,68.75
2018-10-17T01:47:37.265Z,68.60
2018-10-17T01:47:49.014Z,68.50
2018-10-17T01:48:00.778Z,68.86
2018-10-17T01:48:12.536Z,68.49
2018-10-17T01:48:24.292Z,69.13
2018-10-17T01:48:36.048Z,68.57
2018-10-17T01:48:47.791Z,68.92
2018-10-17T01:48:59.565Z,69.06
2018-10-17T01:49:11.348Z,68.57
2018-10-17T01:49:23.088Z,68.91
2018-10-17T01:49:34.843Z,69.07
2018-10-17T01:49:46.586Z,68.67
2018-10-17T01:49:58.332Z,68.80
2018-10-17T01:50:10.788Z,68.72
2018-10-17T01:50:22.535Z,68.11
2018-10-17T01:50:34.321Z,68.51
2018-10-17T01:50:46.059Z,68.21
2018-10-17T01:50:58.161Z,69.17
2018-10-17T01:51:09.918Z,68.47
2018-10-17T01:51:21.752Z,69.09
2018-10-17T01:51:33.494Z,68.28
2018-10-17T01:51:45.245Z,68.30
2018-10-17T01:51:56.985Z,68.24
2018-10-17T01:52:08.760Z,68.96
2018-10-17T01:52:20.515Z,69.00
2018-10-17T01:52:32.290Z,68.33
2018-10-17T01:52:44.043Z,68.34
2018-10-17T01:52:55.805Z,69.24
2018-10-17T01:53:07.618Z,69.43
2018-10-17T01:53:19.343Z,68.57
2018-10-17T01:53:31.250Z,68.56
2018-10-17T01:53:42.998Z,68.59
2018-10-17T01:53:54.762Z,68.67
2018-10-17T01:54:07.250Z,68.77
2018-10-17T01:54:18.992Z,68.67
2018-10-17T01:54:30.726Z,69.02
2018-10-17T01:54:42.508Z,68.94
2018-10-17T01:54:54.256Z,68.98
2018-10-17T01:55:06.055Z,68.98
2018-10-17T01:55:17.785Z,69.13
2018-10-17T01:55:29.540Z,68.90
2018-10-17T01:55:41.296Z,68.46
2018-10-17T01:55:53.042Z,68.74
2018-10-17T01:56:04.821Z,68.30
2018-10-17T01:56:16.561Z,68.58
2018-10-17T01:56:28.297Z,68.18
2018-10-17T01:56:40.093Z,68.37
2018-10-17T01:56:51.836Z,68.22
2018-10-17T01:57:03.584Z,69.01
2018-10-17T01:57:15.335Z,68.27
2018-10-17T01:57:27.083Z,68.46
2018-10-17T01:57:38.859Z,68.92
2018-10-17T01:57:50.611Z,68.68
2018-10-17T01:58:02.362Z,68.82
2018-10-17T01:58:25.571Z,69.16
2018-10-17T01:58:37.320Z,68.85
2018-10-17T01:58:49.075Z,68.42
2018-10-17T01:59:00.888Z,68.20
2018-10-17T01:59:12.593Z,69.07
2018-10-17T01:59:24.351Z,69.09
2018-10-17T01:59:36.174Z,69.10
2018-10-17T01:59:47.913Z,68.68
2018-10-17T01:59:59.653Z,68.64
2018-10-17T02:00:12.093Z,68.83
2018-10-17T02:00:23.899Z,68.92
2018-10-17T02:00:35.652Z,68.38
2018-10-17T02:00:47.408Z,68.32
2018-10-17T02:00:59.211Z,68.64
2018-10-17T02:01:11.022Z,68.38
2018-10-17T02:01:23.356Z,68.55
2018-10-17T02:01:35.136Z,68.86
2018-10-17T02:01:46.892Z,68.56
2018-10-17T02:01:59.671Z,68.29
2018-10-17T02:02:11.417Z,69.12
2018-10-17T02:02:23.877Z,68.70
2018-10-17T02:02:35.627Z,69.02
2018-10-17T02:02:48.266Z,68.46
2018-10-17T02:03:00.022Z,68.72
2018-10-17T02:03:11.779Z,69.02
2018-10-17T02:03:23.575Z,69.00
2018-10-17T02:03:35.330Z,68.71
2018-10-17T02:03:47.073Z,68.20
2018-10-17T02:03:58.829Z,69.01
2018-10-17T02:04:10.584Z,68.54
2018-10-17T02:04:22.360Z,68.58
2018-10-17T02:04:34.106Z,68.68
2018-10-17T02:04:45.860Z,68.98
2018-10-17T02:04:57.654Z,68.96
2018-10-17T02:05:09.414Z,68.57
2018-10-17T02:05:21.174Z,68.92
2018-10-17T02:05:32.920Z,68.56
2018-10-17T02:05:44.679Z,68.67
2018-10-17T02:05:56.438Z,68.82
2018-10-17T02:06:09.241Z,69.03
2018-10-17T02:06:21.717Z,68.64
2018-10-17T02:06:33.482Z,69.06
2018-10-17T02:06:45.236Z,68.99
2018-10-17T02:06:57.014Z,68.23
2018-10-17T02:07:08.852Z,68.50
2018-10-17T02:07:21.607Z,68.01
2018-10-17T02:07:33.360Z,68.68
2018-10-17T02:07:45.110Z,68.47
2018-10-17T02:07:56.877Z,68.71
2018-10-17T02:08:08.641Z,69.07
2018-10-17T02:08:20.420Z,69.01
2018-10-17T02:08:32.186Z,68.69
2018-10-17T02:08:43.952Z,68.68
2018-10-17T02:08:55.689Z,68.22
2018-10-17T02:09:07.454Z,68.94
2018-10-17T02:09:19.216Z,68.71
2018-10-17T02:09:30.973Z,68.87
2018-10-17T02:09:42.723Z,68.56
2018-10-17T02:09:54.483Z,68.43
2018-10-17T02:10:06.227Z,68.62
2018-10-17T02:10:18.159Z,68.11
2018-10-17T02:10:29.911Z,68.70
2018-10-17T02:10:42.671Z,69.03
2018-10-17T02:10:54.419Z,69.03
2018-10-17T02:11:06.238Z,68.80
2018-10-17T02:11:18.023Z,68.30
2018-10-17T02:11:29.716Z,68.39
2018-10-17T02:11:41.494Z,68.87
2018-10-17T02:11:53.246Z,68.42
2018-10-17T02:12:04.997Z,69.24
2018-10-17T02:12:16.743Z,68.20
2018-10-17T02:12:28.510Z,68.57
2018-10-17T02:12:40.308Z,68.83
2018-10-17T02:12:52.057Z,68.17
2018-10-17T02:13:03.887Z,68.27
2018-10-17T02:13:15.618Z,68.19
2018-10-17T02:13:27.384Z,68.87
2018-10-17T02:13:39.123Z,68.19
2018-10-17T02:13:50.879Z,68.07
2018-10-17T02:14:02.632Z,68.27
2018-10-17T02:14:14.386Z,68.65
2018-10-17T02:14:26.239Z,68.30
2018-10-17T02:14:37.992Z,68.40
2018-10-17T02:14:49.767Z,68.63
2018-10-17T02:15:01.519Z,68.77
2018-10-17T02:15:13.270Z,68.88
2018-10-17T02:15:25.014Z,68.09
2018-10-17T02:15:36.771Z,68.69
2018-10-17T02:15:48.721Z,68.33
2018-10-17T02:16:00.475Z,68.89
2018-10-17T02:16:12.224Z,68.41
2018-10-17T02:16:23.976Z,68.69
2018-10-17T02:16:35.800Z,68.16
2018-10-17T02:16:47.554Z,68.82
2018-10-17T02:16:59.323Z,68.17
2018-10-17T02:17:11.146Z,68.22
2018-10-17T02:17:22.850Z,68.91
2018-10-17T02:17:34.608Z,68.34
2018-10-17T02:17:46.389Z,68.76
2018-10-17T02:17:58.158Z,68.11
2018-10-17T02:18:09.989Z,68.94
2018-10-17T02:18:22.028Z,68.20
2018-10-17T02:18:33.783Z,68.12
2018-10-17T02:18:45.538Z,68.54
2018-10-17T02:18:57.302Z,68.01
2018-10-17T02:19:09.151Z,68.55
2018-10-17T02:19:20.836Z,68.75
2018-10-17T02:19:32.582Z,68.08
2018-10-17T02:19:44.356Z,68.38
2018-10-17T02:19:56.109Z,68.64
2018-10-17T02:20:07.858Z,68.82
2018-10-17T02:20:20.688Z,68.27
2018-10-17T02:20:32.525Z,68.14
2018-10-17T02:20:44.303Z,68.64
2018-10-17T02:20:56.074Z,68.85
2018-10-17T02:21:07.846Z,68.47
2018-10-17T02:21:19.619Z,68.32
2018-10-17T02:21:31.383Z,68.98
2018-10-17T02:21:43.133Z,68.11
2018-10-17T02:21:54.887Z,68.76
2018-10-17T02:22:06.647Z,68.53
2018-10-17T02:22:18.390Z,68.41
2018-10-17T02:22:30.148Z,68.01
2018-10-17T02:22:41.990Z,68.36
2018-10-17T02:22:53.768Z,67.92
2018-10-17T02:23:05.549Z,68.38
2018-10-17T02:23:18.005Z,68.85
2018-10-17T02:23:29.750Z,68.61
2018-10-17T02:23:41.507Z,68.28
2018-10-17T02:23:53.283Z,68.41
2018-10-17T02:24:05.029Z,68.18
2018-10-17T02:24:16.769Z,68.81
2018-10-17T02:24:28.522Z,68.32
2018-10-17T02:24:40.332Z,68.12
2018-10-17T02:24:52.116Z,68.34
2018-10-17T02:25:03.877Z,68.71
2018-10-17T02:25:15.668Z,68.50
2018-10-17T02:25:27.429Z,68.68
2018-10-17T02:25:39.185Z,68.32
2018-10-17T02:25:50.964Z,68.93
2018-10-17T02:26:03.702Z,68.57
2018-10-17T02:26:15.467Z,68.57
2018-10-17T02:26:27.224Z,68.82
2018-10-17T02:26:38.992Z,68.37
2018-10-17T02:26:50.750Z,68.42
2018-10-17T02:27:03.312Z,68.79
2018-10-17T02:27:15.060Z,67.97
2018-10-17T02:27:26.800Z,68.91
2018-10-17T02:27:38.564Z,68.65
2018-10-17T02:27:50.312Z,69.09
2018-10-17T02:28:02.091Z,68.46
2018-10-17T02:28:13.851Z,68.92
2018-10-17T02:28:25.619Z,68.45
2018-10-17T02:28:37.378Z,68.80
2018-10-17T02:28:50.331Z,68.57
2018-10-17T02:29:02.087Z,68.38
2018-10-17T02:29:13.934Z,68.41
2018-10-17T02:29:25.637Z,68.49
2018-10-17T02:29:37.373Z,68.45
2018-10-17T02:29:49.168Z,68.17
2018-10-17T02:30:01.019Z,68.73
2018-10-17T02:30:12.662Z,68.85
2018-10-17T02:30:24.398Z,68.57
2018-10-17T02:30:36.165Z,67.96
2018-10-17T02:30:47.955Z,68.52
2018-10-17T02:30:59.744Z,68.33
2018-10-17T02:31:11.510Z,68.66
2018-10-17T02:31:23.268Z,68.10
2018-10-17T02:31:35.036Z,68.29
2018-10-17T02:31:46.782Z,68.00
2018-10-17T02:31:58.526Z,68.29
2018-10-17T02:32:10.280Z,69.15
2018-10-17T02:32:22.050Z,68.10
2018-10-17T02:32:33.806Z,68.44
2018-10-17T02:32:45.590Z,68.75
2018-10-17T02:32:57.339Z,68.41
2018-10-17T02:33:09.089Z,68.88
2018-10-17T02:33:20.834Z,68.27
2018-10-17T02:33:32.608Z,68.49
2018-10-17T02:33:44.375Z,68.54
2018-10-17T02:33:57.061Z,68.69